createdAt,value
2022-10-01T00:03:18.611Z,43.90
2022-10-01T00:05:59.003Z,42.40
2022-10-01T00:08:31.487Z,39.40
2022-10-01T00:11:08.053Z,39.20
2022-10-01T00:13:39.618Z,41.50
2022-10-01T00:16:13.569Z,41.80
2022-10-01T00:18:47.062Z,42.30
2022-10-01T00:21:20.350Z,42.00
2022-10-01T00:23:56.595Z,40.50
2022-10-01T00:26:30.737Z,39.80
2022-10-01T00:29:04.777Z,39.40
2022-10-01T00:31:36.702Z,38.70
2022-10-01T00:34:08.452Z,38.50
2022-10-01T00:39:10.438Z,36.30
2022-10-01T00:41:42.821Z,35.20
2022-10-01T00:44:36.016Z,33.50
2022-10-01T00:47:20.475Z,35.60
2022-10-01T00:49:59.338Z,33.40
2022-10-01T00:52:36.193Z,36.10
2022-10-01T00:55:12.894Z,32.10
2022-10-01T00:57:46.210Z,33.00
2022-10-01T01:00:17.765Z,33.60
2022-10-01T01:02:49.346Z,32.50
2022-10-01T01:07:54.523Z,30.70
2022-10-01T01:10:31.308Z,30.10
2022-10-01T01:13:18.138Z,31.40
2022-10-01T01:15:59.347Z,31.20
2022-10-01T01:18:36.095Z,32.90
2022-10-01T01:21:17.672Z,31.70
2022-10-01T01:24:10.372Z,31.90
2022-10-01T01:26:54.113Z,31.60
2022-10-01T01:29:31.064Z,31.10
2022-10-01T01:32:13.979Z,33.30
2022-10-01T01:34:52.139Z,33.20
2022-10-01T01:37:27.557Z,33.40
2022-10-01T01:40:03.553Z,33.10
2022-10-01T01:42:37.951Z,33.60
2022-10-01T01:45:13.690Z,32.40
2022-10-01T01:47:46.697Z,32.20
2022-10-01T01:50:19.756Z,31.50
2022-10-01T01:52:51.582Z,32.10
2022-10-01T01:55:25.554Z,33.60
2022-10-01T01:57:58.829Z,32.30
2022-10-01T02:00:30.711Z,32.20
2022-10-01T02:03:02.819Z,33.10
2022-10-01T02:05:43.902Z,32.90
2022-10-01T02:08:31.134Z,34.10
2022-10-01T02:11:12.666Z,34.40
2022-10-01T02:14:00.133Z,33.30
2022-10-01T02:16:36.198Z,32.50
2022-10-01T02:19:19.448Z,34.80
2022-10-01T02:22:00.866Z,35.80
2022-10-01T02:24:42.505Z,36.40
2022-10-01T02:29:49.829Z,35.20
2022-10-01T02:32:22.978Z,34.80
2022-10-01T02:34:55.867Z,36.30
2022-10-01T02:37:37.209Z,35.90
2022-10-01T02:40:15.886Z,38.00
2022-10-01T02:42:51.012Z,36.20
2022-10-01T02:45:25.795Z,39.40
2022-10-01T02:48:02.657Z,38.30
2022-10-01T02:50:39.907Z,39.30
2022-10-01T02:53:18.306Z,40.30
2022-10-01T02:55:51.682Z,40.70
2022-10-01T02:58:23.513Z,44.20
2022-10-01T03:00:55.001Z,43.40
2022-10-01T03:03:27.410Z,42.10
2022-10-01T03:05:58.880Z,42.50
2022-10-01T03:08:31.726Z,44.40
2022-10-01T03:11:03.202Z,42.20
2022-10-01T03:16:06.084Z,47.10
2022-10-01T03:18:37.599Z,44.20
2022-10-01T03:23:39.120Z,46.30
2022-10-01T03:28:40.572Z,45.70
2022-10-01T03:33:43.067Z,45.10
2022-10-01T03:36:14.618Z,47.50
2022-10-01T03:41:16.118Z,48.10
2022-10-01T03:46:18.082Z,50.40
2022-10-01T03:48:50.630Z,48.30
2022-10-01T03:51:22.110Z,50.20
2022-10-01T03:56:23.980Z,53.80
2022-10-01T03:58:55.808Z,53.90
2022-10-01T04:01:28.141Z,50.90
2022-10-01T04:04:00.089Z,51.30
2022-10-01T04:06:31.636Z,50.80
2022-10-01T04:11:33.397Z,46.50
2022-10-01T04:14:05.219Z,47.60
2022-10-01T04:16:37.052Z,47.30
2022-10-01T04:19:08.554Z,48.90
2022-10-01T04:21:40.200Z,48.90
2022-10-01T04:24:12.045Z,46.90
2022-10-01T04:29:13.459Z,47.50
2022-10-01T04:34:14.985Z,46.70
2022-10-01T04:36:46.760Z,47.40
2022-10-01T04:39:18.468Z,48.30
2022-10-01T04:41:49.966Z,48.50
2022-10-01T04:44:21.384Z,47.30
2022-10-01T04:46:52.845Z,48.40
2022-10-01T04:51:54.244Z,49.20
2022-10-01T04:54:25.730Z,52.10
2022-10-01T04:56:58.301Z,52.60
2022-10-01T04:59:31.801Z,49.90
2022-10-01T05:02:03.629Z,50.10
2022-10-01T05:04:35.074Z,45.30
2022-10-01T05:07:07.010Z,45.30
2022-10-01T05:09:38.444Z,43.60
2022-10-01T05:12:09.920Z,41.20
2022-10-01T05:17:11.294Z,42.20
2022-10-01T05:19:42.750Z,41.20
2022-10-01T05:22:14.457Z,43.30
2022-10-01T05:24:45.886Z,39.60
2022-10-01T05:27:17.325Z,39.10
2022-10-01T05:29:49.015Z,39.90
2022-10-01T05:32:20.687Z,40.60
2022-10-01T05:34:53.728Z,39.70
2022-10-01T05:37:25.361Z,38.50
2022-10-01T05:42:26.872Z,38.60
2022-10-01T05:47:28.336Z,40.80
2022-10-01T05:49:59.979Z,42.00
2022-10-01T05:52:31.386Z,39.30
2022-10-01T05:55:02.836Z,38.10
2022-10-01T06:00:05.639Z,38.60
2022-10-01T06:02:43.632Z,39.20
2022-10-01T06:05:15.309Z,40.10
2022-10-01T06:07:47.102Z,41.00
2022-10-01T06:10:18.954Z,43.50
2022-10-01T06:12:50.512Z,44.40
2022-10-01T06:17:51.863Z,41.70
2022-10-01T06:20:24.137Z,45.90
2022-10-01T06:22:59.831Z,43.50
2022-10-01T06:25:31.635Z,48.50
2022-10-01T06:28:05.837Z,45.60
2022-10-01T06:30:39.409Z,45.50
2022-10-01T06:33:12.620Z,44.70
2022-10-01T06:35:45.764Z,48.50
2022-10-01T06:38:19.812Z,46.50
2022-10-01T06:40:55.861Z,47.00
2022-10-01T06:43:30.057Z,48.50
2022-10-01T06:46:03.909Z,49.40
2022-10-01T06:48:36.513Z,47.40
2022-10-01T06:51:08.678Z,48.90
2022-10-01T06:53:40.202Z,47.40
2022-10-01T06:58:42.540Z,44.80
2022-10-01T07:01:14.227Z,42.60
2022-10-01T07:03:45.790Z,42.70
2022-10-01T07:06:17.253Z,45.70
2022-10-01T07:11:21.209Z,43.50
2022-10-01T07:13:54.902Z,42.40
2022-10-01T07:16:26.607Z,42.70
2022-10-01T07:21:28.179Z,44.20
2022-10-01T07:24:00.040Z,45.50
2022-10-01T07:29:01.704Z,47.30
2022-10-01T07:31:33.678Z,42.70
2022-10-01T07:34:05.377Z,46.40
2022-10-01T07:36:36.821Z,44.30
2022-10-01T07:41:38.293Z,43.70
2022-10-01T07:46:40.714Z,43.50
2022-10-01T07:49:12.866Z,43.60
2022-10-01T07:51:44.482Z,42.20
2022-10-01T07:54:16.192Z,43.10
2022-10-01T07:56:48.232Z,41.30
2022-10-01T07:59:19.817Z,40.10
2022-10-01T08:04:41.387Z,40.60
2022-10-01T08:07:12.866Z,40.50
2022-10-01T08:12:14.452Z,41.90
2022-10-01T08:17:15.913Z,39.80
2022-10-01T08:19:47.474Z,40.20
2022-10-01T08:24:48.974Z,39.00
2022-10-01T08:29:50.638Z,40.40
2022-10-01T08:32:23.266Z,41.50
2022-10-01T08:34:57.596Z,39.90
2022-10-01T08:37:30.275Z,37.80
2022-10-01T08:40:01.952Z,39.80
2022-10-01T08:42:52.161Z,40.20
2022-10-01T08:45:27.123Z,39.90
2022-10-01T08:48:06.330Z,40.10
2022-10-01T08:50:47.800Z,39.40
2022-10-01T08:53:29.220Z,41.20
2022-10-01T08:56:02.710Z,41.50
2022-10-01T08:58:42.086Z,43.70
2022-10-01T09:01:14.141Z,44.30
2022-10-01T09:03:45.721Z,52.60
2022-10-01T09:09:10.025Z,52.60
2022-10-01T09:11:59.531Z,51.10
2022-10-01T09:14:51.133Z,44.00
2022-10-01T09:17:32.665Z,45.70
2022-10-01T09:22:45.437Z,42.20
2022-10-01T09:25:23.080Z,42.10
2022-10-01T09:28:01.893Z,39.40
2022-10-01T09:30:36.636Z,38.00
2022-10-01T09:33:16.587Z,38.20
2022-10-01T09:35:54.656Z,39.70
2022-10-01T09:38:34.919Z,40.20
2022-10-01T09:41:06.539Z,38.90
2022-10-01T09:43:41.290Z,39.50
2022-10-01T09:46:17.522Z,40.40
2022-10-01T09:48:57.463Z,39.90
2022-10-01T09:51:39.421Z,39.90
2022-10-01T09:54:17.457Z,65.30
2022-10-01T09:56:54.902Z,45.80
2022-10-01T09:59:31.310Z,53.50
2022-10-01T10:02:05.980Z,49.70
2022-10-01T10:04:37.599Z,46.40
2022-10-01T10:07:09.216Z,36.40
2022-10-01T10:09:41.446Z,36.50
2022-10-01T10:12:29.332Z,34.00
2022-10-01T10:15:09.971Z,36.30
2022-10-01T10:17:44.233Z,39.00
2022-10-01T10:20:25.944Z,35.60
2022-10-01T10:23:08.343Z,35.70
2022-10-01T10:25:39.964Z,37.00
2022-10-01T10:30:53.713Z,30.80
2022-10-01T10:33:27.094Z,31.10
2022-10-01T10:36:05.494Z,31.10
2022-10-01T10:38:37.454Z,30.00
2022-10-01T10:41:19.587Z,34.40
2022-10-01T10:43:51.339Z,34.00
2022-10-01T10:46:31.442Z,34.00
2022-10-01T10:49:09.295Z,18.00
2022-10-01T10:51:53.542Z,17.40
2022-10-01T10:54:29.382Z,15.60
2022-10-01T10:57:03.221Z,17.00
2022-10-01T10:59:35.775Z,16.00
2022-10-01T11:02:16.677Z,16.00
2022-10-01T11:04:49.273Z,16.00
2022-10-01T11:07:25.250Z,17.90
2022-10-01T11:10:10.232Z,19.00
2022-10-01T11:12:56.934Z,19.70
2022-10-01T11:15:48.174Z,22.50
2022-10-01T11:18:43.928Z,22.40
2022-10-01T11:21:29.239Z,24.10
2022-10-01T11:24:14.333Z,24.60
2022-10-01T11:26:55.349Z,24.60
2022-10-01T11:29:38.737Z,20.80
2022-10-01T11:32:19.861Z,22.70
2022-10-01T11:35:03.721Z,20.70
2022-10-01T11:37:47.615Z,20.70
2022-10-01T11:40:25.494Z,18.80
2022-10-01T11:43:04.421Z,19.20
2022-10-01T11:45:42.758Z,19.40
2022-10-01T11:48:24.114Z,20.90
2022-10-01T11:51:01.239Z,21.70
2022-10-01T11:53:38.769Z,22.20
2022-10-01T11:56:37.321Z,22.40
2022-10-01T11:59:17.632Z,21.80
2022-10-01T12:01:54.698Z,21.50
2022-10-01T12:04:34.118Z,20.40
2022-10-01T12:07:13.110Z,22.10
2022-10-01T12:09:58.082Z,21.00
2022-10-01T12:12:35.205Z,20.20
2022-10-01T12:15:16.425Z,19.50
2022-10-01T12:17:53.833Z,17.30
2022-10-01T12:20:32.388Z,18.40
2022-10-01T12:23:09.140Z,17.10
2022-10-01T12:25:49.177Z,16.30
2022-10-01T12:28:24.532Z,15.30
2022-10-01T12:31:04.063Z,16.70
2022-10-01T12:34:01.914Z,15.10
2022-10-01T12:36:45.156Z,13.70
2022-10-01T12:39:34.555Z,14.50
2022-10-01T12:42:19.689Z,14.70
2022-10-01T12:45:06.213Z,14.40
2022-10-01T12:47:45.840Z,13.70
2022-10-01T12:50:27.877Z,13.70
2022-10-01T12:53:17.827Z,14.80
2022-10-01T12:56:01.368Z,14.90
2022-10-01T12:59:03.920Z,13.90
2022-10-01T13:01:55.806Z,14.20
2022-10-01T13:04:56.631Z,15.30
2022-10-01T13:07:37.453Z,15.50
2022-10-01T13:10:23.142Z,15.20
2022-10-01T13:13:02.978Z,13.90
2022-10-01T13:15:37.893Z,13.30
2022-10-01T13:18:20.701Z,14.40
2022-10-01T13:21:01.858Z,15.40
2022-10-01T13:23:41.563Z,15.50
2022-10-01T13:26:17.453Z,14.40
2022-10-01T13:29:01.573Z,15.10
2022-10-01T13:31:39.573Z,14.40
2022-10-01T13:34:39.073Z,12.90
2022-10-01T13:37:16.529Z,13.50
2022-10-01T13:39:48.620Z,13.90
2022-10-01T13:42:26.078Z,14.30
2022-10-01T13:45:00.520Z,13.20
2022-10-01T13:47:33.061Z,15.20
2022-10-01T13:50:08.169Z,13.40
2022-10-01T13:52:39.914Z,15.90
2022-10-01T13:55:28.674Z,13.60
2022-10-01T13:58:08.218Z,13.70
2022-10-01T14:00:50.297Z,13.10
2022-10-01T14:03:39.897Z,13.20
2022-10-01T14:06:19.348Z,14.20
2022-10-01T14:08:55.145Z,13.40
2022-10-01T14:11:47.866Z,13.90
2022-10-01T14:14:46.829Z,14.80
2022-10-01T14:17:22.818Z,14.60
2022-10-01T14:19:54.737Z,14.90
2022-10-01T14:22:36.503Z,15.70
2022-10-01T14:25:20.938Z,18.80
2022-10-01T14:28:08.319Z,14.70
2022-10-01T14:30:46.872Z,19.00
2022-10-01T14:33:37.114Z,16.80
2022-10-01T14:36:16.546Z,29.50
2022-10-01T14:38:48.330Z,15.90
2022-10-01T14:41:26.939Z,17.50
2022-10-01T14:43:58.384Z,16.30
2022-10-01T14:49:00.849Z,13.60
2022-10-01T14:51:33.076Z,12.30
2022-10-01T14:54:04.598Z,17.40
2022-10-01T14:56:37.938Z,18.10
2022-10-01T14:59:17.175Z,26.70
2022-10-01T15:02:00.213Z,24.30
2022-10-01T15:04:31.760Z,17.90
2022-10-01T15:07:17.160Z,16.90
2022-10-01T15:09:49.918Z,24.50
2022-10-01T15:12:24.223Z,18.10
2022-10-01T15:14:56.899Z,15.60
2022-10-01T15:17:29.648Z,17.00
2022-10-01T15:20:01.293Z,16.40
2022-10-01T15:22:34.001Z,18.30
2022-10-01T15:25:06.462Z,18.20
2022-10-01T15:27:41.739Z,15.80
2022-10-01T15:30:19.160Z,18.90
2022-10-01T15:32:51.496Z,19.40
2022-10-01T15:35:24.611Z,18.30
2022-10-01T15:38:00.529Z,17.70
2022-10-01T15:40:35.279Z,19.90
2022-10-01T15:43:23.519Z,21.40
2022-10-01T15:46:28.896Z,38.30
2022-10-01T15:49:18.887Z,25.30
2022-10-01T15:52:15.390Z,20.10
2022-10-01T15:54:48.474Z,48.20
2022-10-01T15:57:22.732Z,40.30
2022-10-01T15:59:57.789Z,35.60
2022-10-01T16:02:32.899Z,49.10
2022-10-01T16:05:08.985Z,41.00
2022-10-01T16:07:40.521Z,29.60
2022-10-01T16:10:32.316Z,30.20
2022-10-01T16:13:36.311Z,21.50
2022-10-01T16:16:18.597Z,30.70
2022-10-01T16:18:56.254Z,30.00
2022-10-01T16:21:28.287Z,24.00
2022-10-01T16:23:59.839Z,27.40
2022-10-01T16:26:37.797Z,33.60
2022-10-01T16:29:25.139Z,29.40
2022-10-01T16:31:58.235Z,39.70
2022-10-01T16:34:29.705Z,28.20
2022-10-01T16:39:31.469Z,67.80
2022-10-01T16:42:22.676Z,24.20
2022-10-01T16:47:24.658Z,28.50
2022-10-01T16:52:26.544Z,31.00
2022-10-01T16:54:58.061Z,31.70
2022-10-01T16:57:29.539Z,31.70
2022-10-01T17:02:31.074Z,38.90
2022-10-01T17:05:02.581Z,36.70
2022-10-01T17:10:06.383Z,27.50
2022-10-01T17:12:37.848Z,39.70
2022-10-01T17:17:44.851Z,34.10
2022-10-01T17:20:16.459Z,27.20
2022-10-01T17:22:48.551Z,43.40
2022-10-01T17:25:21.836Z,25.70
2022-10-01T17:27:53.342Z,28.10
2022-10-01T17:30:25.111Z,23.40
2022-10-01T17:32:56.877Z,20.20
2022-10-01T17:35:29.543Z,19.30
2022-10-01T17:38:01.204Z,22.40
2022-10-01T17:40:32.678Z,24.00
2022-10-01T17:45:34.167Z,21.10
2022-10-01T17:48:05.983Z,18.40
2022-10-01T17:50:43.671Z,19.20
2022-10-01T17:53:15.642Z,19.30
2022-10-01T17:55:47.258Z,18.10
2022-10-01T17:58:19.735Z,17.60
2022-10-01T18:00:51.420Z,18.20
2022-10-01T18:03:23.444Z,18.30
2022-10-01T18:06:03.588Z,17.10
2022-10-01T18:08:54.281Z,16.60
2022-10-01T18:11:28.834Z,14.90
2022-10-01T18:14:00.521Z,16.10
2022-10-01T18:21:56.938Z,16.60
2022-10-01T18:24:28.929Z,14.30
2022-10-01T18:27:00.409Z,14.40
2022-10-01T18:29:31.897Z,15.30
2022-10-01T18:34:40.745Z,15.80
2022-10-01T18:37:23.359Z,16.60
2022-10-01T18:40:01.123Z,7.40
2022-10-01T18:42:42.515Z,6.70
2022-10-01T18:45:19.467Z,7.30
2022-10-01T18:48:03.833Z,7.30
2022-10-01T18:50:44.548Z,6.40
2022-10-01T18:53:29.174Z,7.20
2022-10-01T18:56:29.190Z,5.80
2022-10-01T18:59:15.701Z,5.40
2022-10-01T19:01:54.796Z,52.20
2022-10-01T19:04:51.777Z,12.70
2022-10-01T19:07:40.866Z,5.00
2022-10-01T19:10:23.980Z,4.90
2022-10-01T19:13:06.548Z,5.10
2022-10-01T19:15:50.801Z,6.00
2022-10-01T19:18:38.507Z,4.80
2022-10-01T19:21:20.720Z,4.30
2022-10-01T19:24:20.635Z,4.10
2022-10-01T19:27:01.504Z,3.80
2022-10-01T19:29:46.697Z,3.80
2022-10-01T19:32:22.487Z,4.30
2022-10-01T19:34:59.053Z,4.00
2022-10-01T19:37:37.649Z,3.60
2022-10-01T19:40:20.470Z,5.50
2022-10-01T19:43:00.105Z,3.90
2022-10-01T19:45:44.236Z,3.20
2022-10-01T19:48:22.383Z,3.00
2022-10-01T19:50:59.346Z,2.80
2022-10-01T19:53:37.182Z,2.60
2022-10-01T19:56:14.744Z,2.60
2022-10-01T19:58:47.517Z,2.70
2022-10-01T20:01:22.345Z,2.80
2022-10-01T20:04:00.184Z,4.90
2022-10-01T20:06:34.757Z,3.60
2022-10-01T20:09:16.838Z,3.20
2022-10-01T20:11:54.779Z,3.30
2022-10-01T20:14:59.650Z,4.90
2022-10-01T20:17:40.417Z,3.70
2022-10-01T20:20:18.785Z,3.30
2022-10-01T20:23:03.340Z,3.70
2022-10-01T20:25:45.937Z,3.60
2022-10-01T20:28:24.923Z,4.10
2022-10-01T20:31:08.939Z,3.90
2022-10-01T20:33:51.842Z,4.20
2022-10-01T20:36:34.041Z,4.30
2022-10-01T20:39:13.170Z,4.10
2022-10-01T20:41:47.847Z,4.10
2022-10-01T20:44:23.479Z,4.40
2022-10-01T20:47:03.139Z,5.10
2022-10-01T20:49:39.279Z,5.30
2022-10-01T20:52:18.939Z,5.60
2022-10-01T20:54:57.498Z,6.00
2022-10-01T20:57:34.454Z,5.30
2022-10-01T21:00:08.970Z,6.80
2022-10-01T21:02:45.003Z,6.90
2022-10-01T21:05:23.394Z,6.90
2022-10-01T21:08:00.499Z,7.40
2022-10-01T21:10:38.773Z,7.60
2022-10-01T21:13:16.892Z,9.10
2022-10-01T21:15:58.559Z,8.30
2022-10-01T21:21:20.124Z,8.50
2022-10-01T21:24:05.942Z,9.90
2022-10-01T21:26:49.732Z,8.90
2022-10-01T21:29:39.934Z,10.70
2022-10-01T21:32:23.403Z,10.60
2022-10-01T21:35:02.427Z,9.80
2022-10-01T21:37:38.753Z,8.70
2022-10-01T21:40:24.925Z,8.90
2022-10-01T21:43:06.951Z,9.70
2022-10-01T21:45:48.611Z,10.50
2022-10-01T21:51:03.576Z,9.90
2022-10-01T21:54:03.500Z,9.50
2022-10-01T21:56:54.976Z,9.30
2022-10-01T21:59:47.558Z,9.20
2022-10-01T22:02:31.112Z,9.50
2022-10-01T22:05:12.266Z,9.40
2022-10-01T22:07:52.047Z,10.10
2022-10-01T22:10:28.445Z,9.10
2022-10-01T22:13:04.204Z,8.80
2022-10-01T22:15:40.497Z,9.00
2022-10-01T22:18:19.474Z,8.60
2022-10-01T22:20:52.599Z,9.00
2022-10-01T22:23:25.613Z,8.60
2022-10-01T22:26:02.125Z,8.30
2022-10-01T22:28:39.854Z,8.50
2022-10-01T22:31:16.790Z,8.70
2022-10-01T22:33:54.211Z,8.00
2022-10-01T22:36:32.648Z,8.70
2022-10-01T22:39:08.566Z,9.50
2022-10-01T22:41:45.879Z,7.80
2022-10-01T22:44:19.925Z,8.30
2022-10-01T22:47:21.538Z,7.80
2022-10-01T22:50:11.947Z,8.20
2022-10-01T22:52:52.685Z,8.60
2022-10-01T22:55:31.902Z,7.10
2022-10-01T22:58:14.432Z,7.70
2022-10-01T23:00:52.351Z,7.40
2022-10-01T23:03:35.361Z,7.60
2022-10-01T23:06:12.328Z,7.80
2022-10-01T23:08:50.047Z,7.80
2022-10-01T23:11:28.004Z,7.50
2022-10-01T23:14:09.106Z,7.40
2022-10-01T23:16:51.503Z,8.30
2022-10-01T23:19:36.570Z,9.00
2022-10-01T23:22:15.613Z,8.70
2022-10-01T23:25:04.582Z,8.00
2022-10-01T23:27:48.286Z,8.10
2022-10-01T23:30:21.614Z,8.40
2022-10-01T23:33:20.853Z,8.50
2022-10-01T23:36:05.126Z,9.00
2022-10-01T23:38:53.402Z,8.60
2022-10-01T23:41:31.941Z,8.70
2022-10-01T23:44:10.013Z,8.30
2022-10-01T23:46:43.859Z,8.40
2022-10-01T23:49:18.390Z,8.00
2022-10-01T23:51:56.554Z,8.00
2022-10-01T23:54:34.103Z,8.20
2022-10-01T23:57:11.071Z,7.80
2022-10-01T23:59:45.757Z,8.00
